Scroll down
FLIGHT INFORMATION
KLM Royal Dutch Airlines

KLM722

At Arrival Gate

TBPB
 EHAM
DATE: 2021-02-08
GATE:  -
GATE DEPARTURE: 12:56
TAKEOFF: 13:06
DATE: 2021-02-08
GATE: F3
LANDING: 21:28
GATE ARRIVAL: 21:38
FLIGHT DATA
Crew: 
Speed: 
939 kph
Altitude: 
37,039 ft
Stage Length: 
7,121.3 km
Block Time: 
8.6 hrs
Flight Time: 
8.4 hrs
Fuel Used: 
59,668 kg
Cleared Route: TBPB FISST 2550N 3440N 4130N 4620N EVBAK RATKA DAWLY BRIPO GIBSO BEVUP ABKIM SAM HAZEL NIBDA NOVMA MID MODMI OCK KOBBI BRAIN GASBA RATLO REDFA SULUT SUGOL CI06 RW06
TRACK DATA
50,000 ft 1,000 kts
AIRCRAFT INFO AND CUMULATIVE STATS
Aircraft Type: 
B77W
Registration: 
SELCAL: 
EKLR
MSN/LN: 
35979 / 807
Total Flights: 
7
Total Block Time: 
78.1 hrs
Total Flight Time: 
76.5 hrs
Total Fuel Used: 
564,665 kg
DATALINK LOG | Newest first | Current as of: 2021-09-21 08:56:15
LABEL SEQUENCE CONTENT Dn/Up
QD395821:38 31.1▼ Dn
QC305121:28▼ Dn
2U3346EHAM 081955Z 07009KT 9999 FEW011 SCT022 BKN042 M04/M07 Q1004 R99/420595 NOSIG▲ Up
GA3513YOUR ASSIGNMENT IS STILL F3▲ Up
GR3503EHAM 21:30 MAAS 00 YP/UM 01/01 WCHR/S/C 01/02/03 HI-VAL NO DIPL/VIP NO▼ Dn
2S3502EHAM▼ Dn
5R2109FISST 13:53z FL350 2550N 15:01z 3440N M0.82 64.3 -48 317/27 RW06 21:19z▼ Dn
5Z21088 FEB 21 14:18:49z / FLT DECK GOOD / ACF POS GOOD / GRND SERVICES GOOD / MAINT GOOD▼ Dn
GA1916GATE F3▲ Up
GR1906EHAM 20:58 MAAS 00 YP/UM 01/01 WCHR/S/C 01/02/03 HI-VAL NO DIPL/VIP NO▼ Dn
2U1507LPLA 081356Z AUTO 24016G23KT 9999 BKN055 18/13 A2994 RMK AO2 PK WND 24035/32 SLP141 T01790126 $▲ Up
2U1507TXKF 081355Z 36008KT 9999 SCT021 BKN037 OVC052 19/14 Q1022▲ Up
2U1507TBPB 081400Z 09019KT 9999 FEW022 29/19 Q1016 NOSIG▲ Up
2S1705TBPB TXKF LPLA▼ Dn
QB090213:06▼ Dn
QA585312:56 162.7▼ Dn
A35156NO MATCHING FLIGHT DATA AVAILABLE FROM ANSP▲ Up
B35147TBPB TBPB TBPB A ▼ Dn
2U4221TBPB 081200Z 09017KT 9999 FEW020 27/19 Q1016 NOSIG▲ Up
2S4440TBPB▼ Dn
Q04137[LINK ACK]▲ Up
Q04137[LINK TEST]▼ Dn


AIRCRAFT HISTORY
FLIGHT DATE FLIGHT NO. ORIGIN DESTINATION CLEARED ROUTE BLOCK TIME FLIGHT TIME FUEL USED PILOT
2021-03-02KLM302EHAM FACT EHAM LOPIK VELED LUTOM BROGY TERLA LNO GESLO GOPAS DIK LIMGO SUTAL GTQ POGOL LASAT MIRGU SHARA TIRSO ARPUS TORPA MOROK GILIR GVA KOGAS VEVAR BARSO KOLON ROKNO EBORA GARPU SOVAG BUKID ERETI ETOIL CIRTA CSO TOLGA BOD ATAFA BERTI MELOG ERKEL EDAGO AS IKTAR MOLIT MIMBA KAN POLGA JOS EVGEL VONVI IKPUV AKLIS OBUDU DLA ARASI LUDNA ODOVA AYELA KOPOV EPASA RASOP KEKIR APEMI LIKAD AXULU OKLOD NIBOB UVUNI TIGIM EPMOR UDKEB EGMAT XADOP NIBUR VMO OKBIK OKDOL IXEPA DUGNU EGRIX APGEK XALVI ANSUX UNPIN IMRUG UTVUM APGAS XUDAN ETMUS ABV UVBUD ASPIK FACT13.6 hrs13.4 hrs206,868 lbAlex K.
2021-02-08KLM722TBPB EHAM TBPB FISST 2550N 3440N 4130N 4620N EVBAK RATKA DAWLY BRIPO GIBSO BEVUP ABKIM SAM HAZEL NIBDA NOVMA MID MODMI OCK KOBBI BRAIN GASBA RATLO REDFA SULUT SUGOL CI06 RW068.6 hrs8.4 hrs131,546 lbEmanuel Hagen
2021-02-06KLM721EHAM TBPB EHAM EH084 EH045 EH036 EH072 LEKKO KUDAD WOODY NIK DENOX CIV MEDIL PITHI LESDO KOVIN KIHVI PON DITAL GODIX DIDAK KURIS TERPO AKEMO IBISU COQUE XIDAN LAPEX SEPAL 4615N 4420N 4030N 3440N 2650N DRDGE BGI RW099.1 hrs9 hrs138,707 lbEmanuel Hagen
2020-12-23KLM792SBGR EHAM SBGR BCO IVRAG VUMEV UBRIR MAVMO UKAKI MOXIK OPKES PONVU BHZ ANSIX DEPOT NINSA TOMOP OBGAR MUDOL QUARU FORTI MUMLI APORT PUIDO GAVUN KODVI GAVOD PTL UKLEM GUTOI DAKAP VAMUS MOTBU MOVGA BIKOM ULTEM N2500.0W02800.0 SORAD N3500.0W02100.0 N4000.0W01800.0 GONAN EMPER GAPLI SUNFI TOFED GAJIT CPT IPRIL KOBBI BRAIN GASBA RATLO REDFA EHAM11.5 hrs11.3 hrs193,087 lbMichael Roth
2020-12-23KLM1222EHAM SBGR EHAM EH001 EH051 EH009 VALKO IDRID ABNED IBNOS XAMAN LOGAN JACKO TRIPO SABER LIVSU MANGO SIRGO GILDA MID NOVMA NIBDA HAZEL SAM KAPEX MARUK LORKU GOBUR TITUB BERAD QPR EBOMO KEREB COQUE KOLEK KORUL DEMOS ASMAR VERAM NELSO ROSTA NORED EDUMO GAMBA KENOX SAGRO DIGUN NANIK DIKEB PUNOM CARVE JOBER VADIR FLZ RODIT PUREU VAROP BISSA DALMA EGEDU XOMUK ILNOS MUGAV ILPUR HAMBU MALRA CARDO GEVMI NITGI LISBO DOKBA REINA PANAP UNIDO GAXEV MUMDI PABAV NIPKI OPRUT ESDAD MOXEP SBGR12.4 hrs12.1 hrs206,810 lbMichael Roth
2020-12-20KLM832RKSI EHAM RKSI SI707 SI713 SONJA NOPIK BINIL ANSIM DANTI GONAV AGAVO DONVO OBDIS SANKO POVAG DOBGA NUNDU MAKNO ALARA UNSEK ORAVA LC ANOBI OPIMU UKDUM ASILA UNTEN ERVEB POLHO MODUN ZAMUS GOBEZ PRING SERNA PIMIT KEMON LUTOG BAPIR AGANU GUDMI RELIK NEDAG LONKA RO USOPA SURIP NOVRA RONIK CE SOTIM SOREB PAROM NJC TETSI APRAN ULGUN OGIKA NEGNA LARTU ABGIL SORLI NETLU OGROM OSKEL SOGTE BAPES GUDES IDLIR ERSOM UMTAK ODNUS ROMUM GITOT ADLIN RUROS NEPEN MOGPI IDRAK TUBNI UMUTA BAPOK UMODI TURAL OKBES RANVA RESMO KEMET MOLOK TODNA RUTEK DEREX KOTAM EKRAL SUP ADVIS LILBI EVBED LUPUR KOPEX LANGO ALS DEMIR DEGUL GOLEN KUBAT EEL EHAM11.5 hrs11.3 hrs184,462 lbMichael Roth
2020-12-12KLM855EHAM RKSI 11.3 hrs11.1 hrs183,394 lbMichael Roth